Time;durP1;ratioP1;P1;durP2;ratioP2;P2;SDS_P1;SDS_P2;PMS_P1;PMS_P2;Temp;Humidity;BMP_temperature;BMP_pressure;BME280_temperature;BME280_humidity;BME280_pressure;Samples;Min_cycle;Max_cycle;Signal;HPM_P1;HPM_P2
2021/06/01 00:04:19;;;;;;;7.30;2.80;;;21.80;67.00;;;;;;20922267;28;20053;-54
2021/06/01 00:14:20;;;;;;;10.55;3.65;;;21.60;68.20;;;;;;20921119;28;20045;-52
2021/06/01 00:24:22;;;;;;;11.75;3.60;;;21.50;69.10;;;;;;20920878;28;20128;-51
2021/06/01 00:34:23;;;;;;;9.48;2.63;;;21.40;68.60;;;;;;20919621;28;20084;-53
2021/06/01 00:44:24;;;;;;;11.75;3.58;;;21.40;68.60;;;;;;20919134;28;20092;-55
2021/06/01 00:54:26;;;;;;;9.52;3.00;;;21.40;68.80;;;;;;20917828;28;20171;-55
2021/06/01 01:04:28;;;;;;;9.68;3.25;;;21.30;68.40;;;;;;20883020;28;20084;-56
2021/06/01 01:14:33;;;;;;;6.27;3.20;;;21.30;66.90;;;;;;20915913;28;20124;-53
2021/06/01 01:25:03;;;;;;;8.02;3.20;;;21.20;67.80;;;;;;20915685;28;20080;-51
2021/06/01 01:35:06;;;;;;;11.65;3.92;;;21.20;68.00;;;;;;20914766;28;20132;-53
2021/06/01 01:45:12;;;;;;;12.45;3.00;;;21.20;71.20;;;;;;20914145;28;20136;-52
2021/06/01 01:55:15;;;;;;;8.85;3.33;;;21.20;72.40;;;;;;20895622;28;20128;-53
2021/06/01 02:05:17;;;;;;;8.00;2.80;;;20.90;72.40;;;;;;20912260;28;20080;-52
2021/06/01 02:15:19;;;;;;;9.63;3.00;;;20.90;71.00;;;;;;20912686;28;20088;-51
2021/06/01 02:25:32;;;;;;;8.80;2.83;;;20.70;70.80;;;;;;20912607;28;20529;-52
2021/06/01 02:35:37;;;;;;;8.33;2.80;;;20.70;69.90;;;;;;20912626;28;20138;-52
2021/06/01 02:45:40;;;;;;;11.38;2.30;;;20.60;69.80;;;;;;20913144;28;20081;-52
2021/06/01 02:55:42;;;;;;;9.75;2.42;;;20.70;69.70;;;;;;20893980;28;20136;-55
2021/06/01 03:05:44;;;;;;;7.30;2.10;;;20.60;70.10;;;;;;20910540;28;20446;-54
2021/06/01 03:15:45;;;;;;;7.63;2.33;;;20.70;69.40;;;;;;20892025;28;20092;-54
2021/06/01 03:25:46;;;;;;;7.25;2.42;;;20.60;69.40;;;;;;20925510;28;20159;-52
2021/06/01 03:35:48;;;;;;;9.38;2.53;;;20.60;69.20;;;;;;20924541;28;20056;-51
2021/06/01 03:45:49;;;;;;;5.57;2.35;;;20.50;69.20;;;;;;20907256;28;20053;-53
2021/06/01 03:55:50;;;;;;;9.75;2.78;;;20.50;69.20;;;;;;20923044;28;20139;-53
2021/06/01 04:05:51;;;;;;;9.07;3.03;;;20.40;69.50;;;;;;20923083;28;20532;-52
2021/06/01 04:15:53;;;;;;;9.07;2.65;;;20.30;70.00;;;;;;20921083;28;20140;-58
2021/06/01 04:25:54;;;;;;;15.80;3.58;;;20.40;70.30;;;;;;20903295;28;20084;-54
2021/06/01 04:35:56;;;;;;;9.95;2.75;;;20.30;71.80;;;;;;20918462;28;20179;-55
2021/06/01 04:45:57;;;;;;;8.88;3.08;;;20.30;71.30;;;;;;20919267;28;20477;-52
2021/06/01 04:55:58;;;;;;;10.70;2.55;;;20.20;71.90;;;;;;20900245;28;20052;-53
2021/06/01 05:05:59;;;;;;;8.55;3.03;;;20.20;72.10;;;;;;20917355;28;20073;-53
2021/06/01 05:16:00;;;;;;;10.88;3.22;;;20.20;72.10;;;;;;20897514;28;20055;-54
2021/06/01 05:26:03;;;;;;;6.78;2.60;;;20.20;71.70;;;;;;20915861;28;20045;-52
2021/06/01 05:36:04;;;;;;;6.70;2.43;;;20.10;72.30;;;;;;20914706;28;20095;-53
2021/06/01 05:46:06;;;;;;;6.90;2.60;;;20.00;72.10;;;;;;20913376;28;20049;-53
2021/06/01 05:56:07;;;;;;;8.00;3.60;;;20.10;72.00;;;;;;20913353;28;20469;-52
2021/06/01 06:06:13;;;;;;;6.03;3.53;;;20.10;72.10;;;;;;20911686;28;20072;-53
2021/06/01 06:16:18;;;;;;;7.05;2.75;;;20.10;71.80;;;;;;20911642;28;20085;-51
2021/06/01 06:26:20;;;;;;;8.90;3.85;;;20.10;71.40;;;;;;20911394;28;20045;-54
2021/06/01 06:36:21;;;;;;;10.70;4.30;;;20.20;71.30;;;;;;20911253;28;20452;-53
2021/06/01 06:46:26;;;;;;;8.82;4.13;;;20.30;71.50;;;;;;20910205;28;20067;-54
2021/06/01 06:56:29;;;;;;;17.77;5.03;;;20.40;70.70;;;;;;20920222;28;20060;-53
2021/06/01 07:06:31;;;;;;;10.45;5.03;;;20.50;70.40;;;;;;20926370;28;20123;-53
2021/06/01 07:16:32;;;;;;;10.27;5.13;;;20.70;69.50;;;;;;20924747;28;20500;-52
2021/06/01 07:26:34;;;;;;;9.82;5.97;;;20.80;69.40;;;;;;20925081;28;20049;-53
2021/06/01 07:36:36;;;;;;;15.02;7.18;;;20.90;69.50;;;;;;20924473;28;20132;-53
2021/06/01 07:46:37;;;;;;;19.83;6.40;;;21.20;68.70;;;;;;20923592;28;20049;-53
2021/06/01 07:56:38;;;;;;;11.38;7.18;;;21.30;68.70;;;;;;20922922;28;20235;-52
2021/06/01 08:06:40;;;;;;;20.65;7.00;;;21.50;67.90;;;;;;20921939;28;20059;-53
2021/06/01 08:16:44;;;;;;;13.75;6.93;;;21.80;66.80;;;;;;20920177;28;20136;-54
2021/06/01 08:26:46;;;;;;;19.90;7.95;;;22.10;66.30;;;;;;20920694;28;20496;-52
2021/06/01 08:36:49;;;;;;;18.52;8.45;;;22.60;64.70;;;;;;20919078;28;20053;-50
2021/06/01 08:46:51;;;;;;;16.27;8.93;;;22.90;63.50;;;;;;20917743;28;20509;-51
2021/06/01 09:26:54;;;;;;;15.35;6.30;;;24.40;59.00;;;;;;21234377;27;20139;-52
2021/06/01 09:37:18;;;;;;;16.23;8.60;;;24.30;58.50;;;;;;21224067;27;20047;-50
2021/06/01 09:47:40;;;;;;;14.80;8.40;;;25.10;57.60;;;;;;21166328;28;20082;-50
2021/06/01 10:05:57;;;;;;;25.10;8.30;;;24.90;57.30;;;;;;21219998;27;20527;-49
2021/06/01 10:16:00;;;;;;;22.58;7.85;;;25.00;54.60;;;;;;21150417;28;20132;-49
2021/06/01 10:26:05;;;;;;;19.13;6.72;;;25.20;54.80;;;;;;21149605;28;20163;-48
2021/06/01 10:56:52;;;;;;;17.20;7.30;;;25.90;51.50;;;;;;21146669;28;20051;-54
2021/06/01 11:17:05;;;;;;;20.23;7.57;;;26.10;48.10;;;;;;21089917;28;20177;-52
2021/06/01 11:37:35;;;;;;;35.97;9.63;;;26.10;47.20;;;;;;21088142;28;20411;-52
2021/06/01 11:48:04;;;;;;;11.20;6.45;;;26.30;45.10;;;;;;21086771;28;20127;-55
2021/06/01 12:18:53;;;;;;;16.00;6.55;;;26.00;45.70;;;;;;21084447;28;20092;-56
2021/06/01 13:31:28;;;;;;;26.75;8.63;;;26.80;40.60;;;;;;21080112;28;20138;-55
2021/06/01 15:04:06;;;;;;;33.03;5.43;;;26.40;37.10;;;;;;21090802;28;20080;-56
2021/06/01 17:18:39;;;;;;;7.45;3.70;;;26.50;34.10;;;;;;20904841;28;20076;-56
2021/06/01 17:39:01;;;;;;;46.95;6.70;;;26.10;33.90;;;;;;20903354;28;20470;-55
2021/06/01 17:49:04;;;;;;;;;;;26.10;34.80;;;;;;20957723;28;20133;-49
2021/06/01 17:59:05;;;;;;;6.18;3.22;;;25.80;36.00;;;;;;21077458;28;19970;-51
2021/06/01 19:52:28;;;;;;;8.85;5.35;;;24.90;38.60;;;;;;21087560;28;20418;-56
2021/06/01 20:02:31;;;;;;;9.52;4.90;;;24.80;38.40;;;;;;21087069;28;20155;-56
2021/06/01 20:12:32;;;;;;;12.77;5.20;;;24.30;38.90;;;;;;21087006;28;20131;-53
2021/06/01 20:22:37;;;;;;;6.30;3.63;;;24.10;39.60;;;;;;21084993;28;20109;-53
2021/06/01 20:42:59;;;;;;;8.88;3.58;;;23.40;42.40;;;;;;21083392;28;20054;-54
2021/06/01 20:53:01;;;;;;;7.88;4.63;;;23.30;43.20;;;;;;21082560;28;20070;-54
2021/06/01 21:03:05;;;;;;;8.43;4.53;;;23.20;44.10;;;;;;21082102;28;20131;-53
2021/06/01 21:13:06;;;;;;;11.50;5.00;;;23.10;44.90;;;;;;21082479;28;20368;-54
2021/06/01 21:23:07;;;;;;;12.68;5.47;;;22.90;45.50;;;;;;21081497;28;20487;-54
2021/06/01 21:33:15;;;;;;;8.93;4.78;;;22.70;45.90;;;;;;21081104;28;20446;-54
2021/06/01 21:43:17;;;;;;;7.45;4.60;;;22.70;46.30;;;;;;21080709;28;20474;-53
2021/06/01 21:53:20;;;;;;;10.23;5.23;;;22.50;47.00;;;;;;21079906;28;20484;-55
2021/06/01 22:03:23;;;;;;;11.15;6.25;;;22.50;47.20;;;;;;21077700;28;20534;-54
2021/06/01 22:13:25;;;;;;;9.43;5.57;;;22.30;47.60;;;;;;21078956;28;20056;-55
2021/06/01 22:23:29;;;;;;;9.33;5.20;;;22.20;47.70;;;;;;21078424;28;20075;-54
2021/06/01 22:33:34;;;;;;;8.55;5.05;;;22.10;48.20;;;;;;21076775;28;20048;-54
2021/06/01 22:43:37;;;;;;;9.00;4.72;;;22.00;48.60;;;;;;21078009;28;20059;-55
2021/06/01 22:53:40;;;;;;;8.98;5.10;;;21.90;49.00;;;;;;21077759;28;20547;-55
2021/06/01 23:03:42;;;;;;;;;;;21.60;49.90;;;;;;21077759;28;20620;-54
2021/06/01 23:13:44;;;;;;;6.53;4.83;;;21.20;50.30;;;;;;21091877;28;19920;-53
2021/06/01 23:23:45;;;;;;;8.55;5.15;;;21.10;51.30;;;;;;21090946;28;20074;-54
2021/06/01 23:33:47;;;;;;;7.80;5.60;;;20.90;51.90;;;;;;21090026;28;20048;-52
2021/06/01 23:43:48;;;;;;;18.13;5.60;;;20.90;52.10;;;;;;21089845;28;20150;-54
2021/06/01 23:53:49;;;;;;;7.90;5.10;;;20.90;52.20;;;;;;21088808;28;20066;-54
